Time;durP1;ratioP1;P1;durP2;ratioP2;P2;SDS_P1;SDS_P2;PMS_P1;PMS_P2;Temp;Humidity;BMP_temperature;BMP_pressure;BME280_temperature;BME280_humidity;BME280_pressure;Samples;Min_cycle;Max_cycle;Signal;HPM_P1;HPM_P2
2022/10/04 00:00:44;;;;;;;6.15;1.70;;;17.70;99.90;;;;;;4591445;19;20367;-40
2022/10/04 00:02:35;;;;;;;5.35;1.63;;;17.60;99.90;;;;;;4590823;19;20017;-35
2022/10/04 00:04:08;;;;;;;5.60;1.83;;;17.60;99.90;;;;;;4591567;19;20015;-40
2022/10/04 00:05:39;;;;;;;5.72;1.85;;;17.70;99.90;;;;;;4590874;19;20562;-35
2022/10/04 00:07:10;;;;;;;7.25;2.03;;;17.70;99.90;;;;;;4590488;19;20009;-34
2022/10/04 00:08:46;;;;;;;4.75;1.85;;;17.70;99.90;;;;;;4591865;19;20349;-36
2022/10/04 00:10:31;;;;;;;7.80;2.63;;;17.60;99.90;;;;;;4591748;19;20511;-35
2022/10/04 00:12:02;;;;;;;7.90;2.20;;;17.70;99.90;;;;;;4590253;19;20014;-37
2022/10/04 00:13:34;;;;;;;7.53;2.40;;;17.70;99.90;;;;;;4590400;19;20389;-33
2022/10/04 00:15:16;;;;;;;5.65;2.35;;;17.60;99.90;;;;;;4591638;19;19999;-39
2022/10/04 00:16:48;;;;;;;8.50;2.17;;;17.60;99.90;;;;;;4590156;19;20025;-41
2022/10/04 00:18:27;;;;;;;6.28;2.70;;;17.60;99.90;;;;;;4590664;19;20015;-41
2022/10/04 00:19:58;;;;;;;7.13;2.47;;;17.60;99.90;;;;;;4589642;19;20028;-33
2022/10/04 00:21:55;;;;;;;6.95;2.65;;;17.60;99.90;;;;;;4590454;19;20010;-36
2022/10/04 00:23:40;;;;;;;5.32;2.65;;;17.60;99.90;;;;;;4590752;19;20018;-39
2022/10/04 00:25:12;;;;;;;6.10;1.80;;;17.50;99.90;;;;;;4590740;19;20023;-34
2022/10/04 00:26:43;;;;;;;6.38;2.05;;;17.60;99.90;;;;;;4590277;19;20015;-40
2022/10/04 00:28:20;;;;;;;6.45;1.90;;;17.60;99.90;;;;;;4591194;19;20073;-39
2022/10/04 00:30:34;;;;;;;5.55;2.15;;;17.60;99.90;;;;;;4591601;19;20015;-35
2022/10/04 00:32:11;;;;;;;4.50;2.13;;;17.60;99.90;;;;;;4588979;19;20006;-34
2022/10/04 00:33:57;;;;;;;5.47;2.40;;;17.50;99.90;;;;;;4589317;19;20006;-40
2022/10/04 00:35:28;;;;;;;6.25;2.00;;;17.60;99.90;;;;;;4588841;19;20038;-40
2022/10/04 00:36:59;;;;;;;7.85;2.53;;;17.60;99.90;;;;;;4588712;19;20014;-41
2022/10/04 00:38:30;;;;;;;7.18;1.90;;;17.60;99.90;;;;;;4589393;19;19994;-36
2022/10/04 00:40:04;;;;;;;6.28;1.85;;;17.60;99.90;;;;;;4588119;19;20010;-34
2022/10/04 00:42:06;;;;;;;4.78;2.03;;;17.60;99.90;;;;;;4588563;19;20428;-37
2022/10/04 00:43:39;;;;;;;4.28;1.83;;;17.60;99.90;;;;;;4588710;19;20495;-40
2022/10/04 00:45:18;;;;;;;8.27;2.47;;;17.60;99.90;;;;;;4588438;19;20018;-33
2022/10/04 00:46:49;;;;;;;5.57;2.10;;;17.60;99.90;;;;;;4588773;19;20014;-34
2022/10/04 00:48:30;;;;;;;4.78;1.75;;;17.60;99.90;;;;;;4588540;19;20018;-37
2022/10/04 00:50:20;;;;;;;8.48;2.17;;;17.60;99.90;;;;;;4588370;19;20374;-37
2022/10/04 00:51:58;;;;;;;4.88;1.90;;;17.60;99.90;;;;;;4588609;19;20010;-33
2022/10/04 00:53:50;;;;;;;7.97;2.13;;;17.60;99.90;;;;;;4588435;19;20018;-36
2022/10/04 00:55:41;;;;;;;8.20;2.50;;;17.60;99.90;;;;;;4588207;19;20010;-36
2022/10/04 00:57:22;;;;;;;7.05;2.45;;;17.60;99.90;;;;;;4588227;19;20039;-37
2022/10/04 00:58:56;;;;;;;4.70;2.10;;;17.60;99.90;;;;;;4588677;19;20007;-39
2022/10/04 01:00:30;;;;;;;3.47;1.70;;;17.60;99.90;;;;;;4587062;19;20059;-39
2022/10/04 01:02:02;;;;;;;4.20;1.67;;;17.60;99.90;;;;;;4588190;19;20376;-40
2022/10/04 01:03:38;;;;;;;5.35;1.90;;;17.60;99.90;;;;;;4588304;19;20028;-33
2022/10/04 01:05:30;;;;;;;4.35;1.55;;;17.50;99.90;;;;;;4588193;19;20110;-33
2022/10/04 01:07:02;;;;;;;5.00;1.50;;;17.50;99.90;;;;;;4587988;19;20036;-33
2022/10/04 01:08:38;;;;;;;5.93;1.80;;;17.50;99.90;;;;;;4588123;19;20011;-33
2022/10/04 01:10:17;;;;;;;3.92;1.50;;;17.50;99.90;;;;;;4588341;19;20019;-40
2022/10/04 01:12:01;;;;;;;6.03;2.17;;;17.50;99.90;;;;;;4588211;19;19995;-40
2022/10/04 01:13:57;;;;;;;5.03;1.80;;;17.50;99.90;;;;;;4588328;19;20074;-39
2022/10/04 01:15:32;;;;;;;5.63;2.10;;;17.50;99.90;;;;;;4587997;19;20491;-38
2022/10/04 01:17:04;;;;;;;4.63;1.50;;;17.60;99.90;;;;;;4587973;19;20010;-33
2022/10/04 01:18:35;;;;;;;4.07;1.45;;;17.60;99.90;;;;;;4587195;19;20180;-34
2022/10/04 01:20:30;;;;;;;4.93;1.67;;;17.60;99.90;;;;;;4587408;19;20014;-34
2022/10/04 01:22:07;;;;;;;5.28;1.35;;;17.60;99.90;;;;;;4588135;19;20010;-39
2022/10/04 01:23:40;;;;;;;5.38;1.98;;;17.50;99.90;;;;;;4587803;19;20009;-34
2022/10/04 01:25:11;;;;;;;3.45;1.38;;;17.50;99.90;;;;;;4587930;19;20017;-37
2022/10/04 01:26:43;;;;;;;4.15;1.75;;;17.50;99.90;;;;;;4587361;19;20019;-34
2022/10/04 01:28:15;;;;;;;4.25;1.83;;;17.50;99.90;;;;;;4588230;19;20024;-35
2022/10/04 01:29:46;;;;;;;4.35;1.23;;;17.50;99.90;;;;;;4587779;19;20010;-34
2022/10/04 01:31:17;;;;;;;4.85;1.50;;;17.50;99.90;;;;;;4587991;19;20006;-34
2022/10/04 01:32:48;;;;;;;5.50;1.60;;;17.50;99.90;;;;;;4588010;19;20002;-33
2022/10/04 01:34:23;;;;;;;3.95;1.20;;;17.50;99.90;;;;;;4587896;19;20439;-38
2022/10/04 01:35:55;;;;;;;4.97;1.60;;;17.50;99.90;;;;;;4591244;19;20006;-40
2022/10/04 01:37:26;;;;;;;3.60;1.50;;;17.50;99.90;;;;;;4592537;19;20010;-40
2022/10/04 01:38:57;;;;;;;3.55;1.30;;;17.50;99.90;;;;;;4592473;19;20082;-37
2022/10/04 01:40:30;;;;;;;4.13;1.27;;;17.50;99.90;;;;;;4591024;19;20027;-34
2022/10/04 01:42:14;;;;;;;2.78;1.20;;;17.50;99.90;;;;;;4592352;19;20011;-36
2022/10/04 01:43:47;;;;;;;5.43;1.80;;;17.50;99.90;;;;;;4592481;19;20014;-35
2022/10/04 01:45:32;;;;;;;4.15;1.63;;;17.50;99.90;;;;;;4592903;19;20006;-35
2022/10/04 01:47:08;;;;;;;2.72;1.10;;;17.50;99.90;;;;;;4592721;19;20074;-34
2022/10/04 01:48:41;;;;;;;5.40;1.50;;;17.50;99.90;;;;;;4592485;19;19990;-34
2022/10/04 01:50:19;;;;;;;5.35;1.50;;;17.50;99.90;;;;;;4592163;19;20365;-37
2022/10/04 01:52:00;;;;;;;4.47;1.83;;;17.50;99.90;;;;;;4592128;19;20027;-34
2022/10/04 01:53:39;;;;;;;4.82;1.90;;;17.50;99.90;;;;;;4592262;19;20608;-36
2022/10/04 01:55:23;;;;;;;5.25;1.40;;;17.50;99.90;;;;;;4592218;19;20472;-34
2022/10/04 01:57:05;;;;;;;4.65;1.15;;;17.50;99.90;;;;;;4592119;19;20449;-41
2022/10/04 01:59:04;;;;;;;4.03;1.42;;;17.50;99.90;;;;;;4593696;19;20018;-34
2022/10/04 02:00:37;;;;;;;5.78;1.65;;;17.50;99.90;;;;;;4592305;19;20033;-34
2022/10/04 02:02:16;;;;;;;4.07;1.50;;;17.50;99.90;;;;;;4593020;19;20021;-34
2022/10/04 02:03:52;;;;;;;4.75;1.63;;;17.50;99.90;;;;;;4593004;19;20025;-35
2022/10/04 02:05:31;;;;;;;3.60;1.67;;;17.50;99.90;;;;;;4593793;19;20015;-34
2022/10/04 02:07:03;;;;;;;4.30;1.40;;;17.50;99.90;;;;;;4593945;19;20011;-33
2022/10/04 02:08:36;;;;;;;4.55;1.45;;;17.50;99.90;;;;;;4592959;19;20019;-39
2022/10/04 02:10:10;;;;;;;3.80;1.33;;;17.50;99.90;;;;;;4592918;19;20348;-34
2022/10/04 02:11:43;;;;;;;5.85;2.25;;;17.50;99.90;;;;;;4593368;19;20018;-37
2022/10/04 02:13:16;;;;;;;5.65;2.15;;;17.50;99.90;;;;;;4592746;19;20074;-33
2022/10/04 02:14:51;;;;;;;3.53;1.90;;;17.50;99.90;;;;;;4593243;19;20014;-38
2022/10/04 02:16:23;;;;;;;6.88;2.15;;;17.50;99.90;;;;;;4592857;19;20015;-34
2022/10/04 02:17:54;;;;;;;6.75;1.70;;;17.50;99.90;;;;;;4593625;19;20043;-39
2022/10/04 02:19:35;;;;;;;4.35;1.63;;;17.50;99.90;;;;;;4590754;19;20082;-40
2022/10/04 02:21:07;;;;;;;5.40;1.75;;;17.50;99.90;;;;;;4592878;19;20010;-36
2022/10/04 02:22:38;;;;;;;4.03;1.17;;;17.50;99.90;;;;;;4592669;19;20041;-35
2022/10/04 02:24:09;;;;;;;4.28;1.45;;;17.50;99.90;;;;;;4593234;19;20448;-36
2022/10/04 02:25:40;;;;;;;4.55;1.63;;;17.50;99.90;;;;;;4593564;19;20007;-37
2022/10/04 02:27:12;;;;;;;5.82;1.60;;;17.50;99.90;;;;;;4594325;19;20078;-34
2022/10/04 02:28:43;;;;;;;4.15;1.40;;;17.50;99.90;;;;;;4594374;19;20017;-35
2022/10/04 02:30:14;;;;;;;6.55;1.40;;;17.50;99.90;;;;;;4592461;19;20033;-37
2022/10/04 02:33:42;;;;;;;7.85;1.70;;;17.50;99.90;;;;;;4592341;19;20356;-33
2022/10/04 02:35:14;;;;;;;6.05;1.85;;;17.50;99.90;;;;;;4592377;19;20501;-34
2022/10/04 02:36:50;;;;;;;;;;;17.50;99.90;;;;;;4593806;19;20003;-36
2022/10/04 02:38:23;;;;;;;5.75;1.48;;;17.50;99.90;;;;;;4592465;19;19911;-34
2022/10/04 02:40:07;;;;;;;4.38;1.42;;;17.50;99.90;;;;;;4591292;19;20504;-36
2022/10/04 02:41:49;;;;;;;7.95;1.60;;;17.50;99.90;;;;;;4592906;19;20021;-39
2022/10/04 02:43:32;;;;;;;6.32;1.90;;;17.50;99.90;;;;;;4593047;19;20006;-34
2022/10/04 02:45:12;;;;;;;5.30;1.73;;;17.50;99.90;;;;;;4592759;19;20015;-38
2022/10/04 02:46:54;;;;;;;4.80;1.48;;;17.50;99.90;;;;;;4591820;19;20048;-34
2022/10/04 02:48:48;;;;;;;5.32;1.67;;;17.50;99.90;;;;;;4593106;19;20025;-34
2022/10/04 02:50:25;;;;;;;8.88;2.80;;;17.50;99.90;;;;;;4592126;19;20022;-35
2022/10/04 02:52:05;;;;;;;7.82;2.22;;;17.50;99.90;;;;;;4593089;19;20017;-34
2022/10/04 02:53:59;;;;;;;5.07;1.40;;;17.50;99.90;;;;;;4592120;19;20368;-33
2022/10/04 02:55:30;;;;;;;6.65;1.83;;;17.50;99.90;;;;;;4593038;19;20010;-37
2022/10/04 02:57:01;;;;;;;5.25;2.50;;;17.50;99.90;;;;;;4592130;19;20014;-38
2022/10/04 02:58:33;;;;;;;7.22;1.63;;;17.50;99.90;;;;;;4590604;19;20353;-40
2022/10/04 03:00:33;;;;;;;6.10;1.90;;;17.50;99.90;;;;;;4589842;19;20010;-37
2022/10/04 03:02:25;;;;;;;7.95;2.05;;;17.50;99.90;;;;;;4590491;19;20014;-34
2022/10/04 03:03:56;;;;;;;6.45;1.80;;;17.50;99.90;;;;;;4591427;19;20014;-39
2022/10/04 03:05:27;;;;;;;5.50;1.55;;;17.40;99.90;;;;;;4590620;19;20017;-34
2022/10/04 03:07:00;;;;;;;5.35;2.00;;;17.40;99.90;;;;;;4590693;19;20069;-34
2022/10/04 03:08:35;;;;;;;8.18;2.42;;;17.40;99.90;;;;;;4590697;19;20030;-33
2022/10/04 03:10:11;;;;;;;5.13;1.67;;;17.40;99.90;;;;;;4591150;19;20026;-33
2022/10/04 03:11:42;;;;;;;6.80;1.90;;;17.40;99.90;;;;;;4590488;19;20014;-38
2022/10/04 03:13:14;;;;;;;6.30;2.70;;;17.40;99.90;;;;;;4590783;19;20010;-38
2022/10/04 03:14:46;;;;;;;4.78;1.85;;;17.40;99.90;;;;;;4590860;19;20007;-35
2022/10/04 03:16:17;;;;;;;6.35;1.58;;;17.40;99.90;;;;;;4590723;19;20025;-35
2022/10/04 03:17:49;;;;;;;5.93;2.00;;;17.40;99.90;;;;;;4590400;19;20034;-39
2022/10/04 03:19:21;;;;;;;5.07;2.20;;;17.40;99.90;;;;;;4588864;19;20019;-36
2022/10/04 03:20:53;;;;;;;10.57;2.80;;;17.40;99.90;;;;;;4590875;19;20014;-33
2022/10/04 03:22:24;;;;;;;3.95;1.65;;;17.40;99.90;;;;;;4589782;19;20077;-34
2022/10/04 03:23:55;;;;;;;5.65;2.13;;;17.40;99.90;;;;;;4590275;19;20037;-36
2022/10/04 03:25:40;;;;;;;4.75;1.85;;;17.40;99.90;;;;;;4590618;19;20018;-35
2022/10/04 03:27:32;;;;;;;6.80;2.20;;;17.40;99.90;;;;;;4590195;19;20011;-35
2022/10/04 03:29:09;;;;;;;;;;;17.50;99.90;;;;;;4591568;19;20014;-33
2022/10/04 03:30:45;;;;;;;7.53;2.28;;;17.50;99.90;;;;;;4590057;19;19944;-34
2022/10/04 03:32:17;;;;;;;6.07;1.80;;;17.40;99.90;;;;;;4590072;19;20560;-35
2022/10/04 03:33:48;;;;;;;3.63;1.30;;;17.40;99.90;;;;;;4590389;19;20038;-39
2022/10/04 03:35:28;;;;;;;6.25;1.70;;;17.40;99.90;;;;;;4590643;19;20019;-37
2022/10/04 03:36:59;;;;;;;4.13;1.73;;;17.40;99.90;;;;;;4592232;19;20030;-39
2022/10/04 03:38:31;;;;;;;8.07;1.90;;;17.40;99.90;;;;;;4591217;19;20014;-34
2022/10/04 03:40:02;;;;;;;5.45;2.05;;;17.40;99.90;;;;;;4590858;19;20380;-33
2022/10/04 03:41:33;;;;;;;7.47;2.10;;;17.40;99.90;;;;;;4591945;19;20014;-35
2022/10/04 03:43:04;;;;;;;4.30;1.65;;;17.40;99.90;;;;;;4591035;19;20010;-36
2022/10/04 03:44:35;;;;;;;7.03;2.20;;;17.40;99.90;;;;;;4591944;19;20010;-35
2022/10/04 03:46:06;;;;;;;4.95;1.60;;;17.40;99.90;;;;;;4591697;19;19999;-40
2022/10/04 03:47:39;;;;;;;4.65;1.60;;;17.40;99.90;;;;;;4591896;19;20085;-36
2022/10/04 03:49:12;;;;;;;5.93;2.25;;;17.40;99.90;;;;;;4591881;19;20078;-40
2022/10/04 03:50:45;;;;;;;6.38;2.38;;;17.40;99.90;;;;;;4592106;19;20040;-34
2022/10/04 03:52:23;;;;;;;8.10;2.67;;;17.40;99.90;;;;;;4590842;19;20014;-34
2022/10/04 03:53:58;;;;;;;6.28;1.80;;;17.40;99.90;;;;;;4591188;19;20033;-36
2022/10/04 03:55:34;;;;;;;4.85;2.20;;;17.50;99.90;;;;;;4590628;19;20519;-39
2022/10/04 03:57:05;;;;;;;3.90;1.60;;;17.40;99.90;;;;;;4590908;19;20022;-37
2022/10/04 03:58:36;;;;;;;6.57;2.45;;;17.50;99.90;;;;;;4589104;19;20025;-35
2022/10/04 04:00:08;;;;;;;6.40;2.75;;;17.50;99.90;;;;;;4589306;19;20015;-38
2022/10/04 04:01:39;;;;;;;;;;;17.50;99.90;;;;;;4591328;19;20052;-39
2022/10/04 04:03:14;;;;;;;4.75;1.60;;;17.50;99.90;;;;;;4591372;19;20332;-36
2022/10/04 04:05:00;;;;;;;6.22;1.75;;;17.40;99.90;;;;;;4592112;19;20017;-38
2022/10/04 04:06:51;;;;;;;6.88;3.20;;;17.40;99.90;;;;;;4590554;19;20034;-37
2022/10/04 04:08:37;;;;;;;4.90;1.30;;;17.50;99.90;;;;;;4591893;19;20010;-37
2022/10/04 04:10:23;;;;;;;7.32;1.92;;;17.50;99.90;;;;;;4590481;19;20048;-34
2022/10/04 04:11:55;;;;;;;6.05;1.70;;;17.50;99.90;;;;;;4590609;19;20015;-34
2022/10/04 04:13:26;;;;;;;;;;;17.50;99.90;;;;;;4592323;19;20014;-36
2022/10/04 04:14:58;;;;;;;5.65;1.35;;;17.40;99.90;;;;;;4590874;19;19948;-34
2022/10/04 04:16:29;;;;;;;4.43;1.40;;;17.40;99.90;;;;;;4590211;19;20018;-34
2022/10/04 04:18:04;;;;;;;4.18;1.70;;;17.40;99.90;;;;;;4590302;19;20011;-33
2022/10/04 04:19:36;;;;;;;3.67;1.35;;;17.40;99.90;;;;;;4590209;19;20014;-36
2022/10/04 04:21:07;;;;;;;5.47;1.55;;;17.40;99.90;;;;;;4590684;19;20040;-34
2022/10/04 04:22:40;;;;;;;5.03;1.50;;;17.40;99.90;;;;;;4589282;19;20382;-33
2022/10/04 04:24:17;;;;;;;5.07;1.65;;;17.40;99.90;;;;;;4590243;19;20080;-37
2022/10/04 04:25:50;;;;;;;4.07;1.88;;;17.40;99.90;;;;;;4590068;19;20029;-33
2022/10/04 04:27:23;;;;;;;6.50;2.05;;;17.40;99.90;;;;;;4590767;19;20014;-35
2022/10/04 04:29:10;;;;;;;4.50;1.50;;;17.40;99.90;;;;;;4590095;19;20022;-41
2022/10/04 04:30:45;;;;;;;5.75;2.03;;;17.40;99.90;;;;;;4591138;19;20015;-38
2022/10/04 04:32:22;;;;;;;4.10;1.80;;;17.40;99.90;;;;;;4589933;19;20534;-34
2022/10/04 04:34:00;;;;;;;4.55;1.63;;;17.40;99.90;;;;;;4590389;19;20063;-38
2022/10/04 04:35:32;;;;;;;5.22;1.55;;;17.40;99.90;;;;;;4590922;19;20333;-33
2022/10/04 04:37:03;;;;;;;;;;;17.40;99.90;;;;;;4592028;19;20002;-38
2022/10/04 04:38:35;;;;;;;7.45;1.58;;;17.40;99.90;;;;;;4588878;19;19962;-41
2022/10/04 04:40:23;;;;;;;4.40;1.85;;;17.40;99.90;;;;;;4589781;19;20082;-39
2022/10/04 04:41:54;;;;;;;4.00;1.63;;;17.40;99.90;;;;;;4590843;19;20010;-35
2022/10/04 04:43:26;;;;;;;5.63;2.08;;;17.50;99.90;;;;;;4590932;19;20006;-38
2022/10/04 04:44:59;;;;;;;3.42;2.08;;;17.40;99.90;;;;;;4590089;19;20464;-36
2022/10/04 04:46:30;;;;;;;4.70;2.03;;;17.40;99.90;;;;;;4589516;19;20021;-33
2022/10/04 04:48:03;;;;;;;4.85;1.77;;;17.50;99.90;;;;;;4589540;19;20027;-35
2022/10/04 04:49:37;;;;;;;4.35;1.90;;;17.50;99.90;;;;;;4590589;19;20333;-38
2022/10/04 04:51:21;;;;;;;5.50;1.50;;;17.50;99.90;;;;;;4589590;19;20468;-34
2022/10/04 04:53:15;;;;;;;5.80;1.83;;;17.50;99.90;;;;;;4590748;19;20022;-39
2022/10/04 04:54:46;;;;;;;5.70;1.70;;;17.50;99.90;;;;;;4591500;19;20015;-37
2022/10/04 04:56:20;;;;;;;7.85;1.88;;;17.50;99.90;;;;;;4591023;19;20049;-38
2022/10/04 04:57:54;;;;;;;4.43;1.60;;;17.50;99.90;;;;;;4591321;19;20014;-34
2022/10/04 04:59:26;;;;;;;3.97;1.85;;;17.50;99.90;;;;;;4590404;19;20037;-36
2022/10/04 05:01:05;;;;;;;6.57;2.03;;;17.50;99.90;;;;;;4590978;19;20018;-37
2022/10/04 05:02:37;;;;;;;3.75;1.40;;;17.50;99.90;;;;;;4589717;19;20025;-33
2022/10/04 05:04:08;;;;;;;3.97;1.50;;;17.50;99.90;;;;;;4589330;19;20031;-36
2022/10/04 05:05:39;;;;;;;2.90;1.38;;;17.50;99.90;;;;;;4590862;19;20070;-35
2022/10/04 05:07:15;;;;;;;4.28;1.17;;;17.50;99.90;;;;;;4588240;19;20029;-37
2022/10/04 05:08:49;;;;;;;6.75;1.30;;;17.60;99.90;;;;;;4589035;19;20014;-36
2022/10/04 05:10:30;;;;;;;3.95;1.55;;;17.50;99.90;;;;;;4588378;19;20014;-37
2022/10/04 05:12:10;;;;;;;4.25;2.28;;;17.50;99.90;;;;;;4589034;19;20070;-35
2022/10/04 05:13:46;;;;;;;5.25;1.80;;;17.50;99.90;;;;;;4590933;19;20023;-35
2022/10/04 05:15:17;;;;;;;4.72;1.70;;;17.50;99.90;;;;;;4590017;19;20051;-35
2022/10/04 05:16:50;;;;;;;4.75;1.45;;;17.50;99.90;;;;;;4589512;19;20503;-36
2022/10/04 05:18:30;;;;;;;5.70;2.80;;;17.60;99.90;;;;;;4588602;19;20083;-35
2022/10/04 05:20:05;;;;;;;4.18;1.88;;;17.50;99.90;;;;;;4588008;19;20464;-36
2022/10/04 05:21:38;;;;;;;5.57;1.60;;;17.50;99.90;;;;;;4590773;19;20022;-38
2022/10/04 05:23:11;;;;;;;5.70;1.70;;;17.50;99.90;;;;;;4588246;19;20025;-36
2022/10/04 05:24:43;;;;;;;4.43;1.60;;;17.50;99.90;;;;;;4588933;19;20475;-33
2022/10/04 05:26:16;;;;;;;6.63;2.00;;;17.50;99.90;;;;;;4589995;19;20015;-37
2022/10/04 05:27:48;;;;;;;4.78;1.83;;;17.50;99.90;;;;;;4589983;19;20401;-33
2022/10/04 05:29:25;;;;;;;5.97;2.00;;;17.50;99.90;;;;;;4589774;19;20484;-34
2022/10/04 05:31:19;;;;;;;6.80;1.55;;;17.50;99.90;;;;;;4588812;19;20594;-36
2022/10/04 05:33:01;;;;;;;4.78;1.88;;;17.50;99.90;;;;;;4588097;19;20365;-35
2022/10/04 05:34:39;;;;;;;4.90;1.38;;;17.50;99.90;;;;;;4587721;19;20037;-35
2022/10/04 05:36:12;;;;;;;5.30;1.67;;;17.50;99.90;;;;;;4588046;19;20031;-34
2022/10/04 05:37:51;;;;;;;5.47;1.58;;;17.50;99.90;;;;;;4588711;19;20021;-36
2022/10/04 05:39:57;;;;;;;5.28;1.70;;;17.50;99.90;;;;;;4587092;19;20374;-37
2022/10/04 05:42:06;;;;;;;4.38;1.35;;;17.60;99.90;;;;;;4586161;19;20011;-36
2022/10/04 05:43:43;;;;;;;3.67;1.70;;;17.60;99.90;;;;;;4587981;19;20025;-34
2022/10/04 05:45:19;;;;;;;3.65;1.40;;;17.60;99.90;;;;;;4587159;19;20491;-34
2022/10/04 05:46:52;;;;;;;3.95;1.65;;;17.60;99.90;;;;;;4586159;19;20433;-33
2022/10/04 05:48:23;;;;;;;2.97;1.23;;;17.60;99.90;;;;;;4588473;19;20116;-38
2022/10/04 05:49:57;;;;;;;4.93;1.60;;;17.60;99.90;;;;;;4587098;19;20030;-34
2022/10/04 05:51:36;;;;;;;5.32;1.35;;;17.60;99.90;;;;;;4588537;19;20018;-39
2022/10/04 05:53:32;;;;;;;4.72;1.35;;;17.60;99.90;;;;;;4587633;19;20092;-33
2022/10/04 05:55:22;;;;;;;3.88;1.02;;;17.60;99.90;;;;;;4587103;19;20044;-33
2022/10/04 05:57:07;;;;;;;2.97;1.17;;;17.50;99.90;;;;;;4587960;19;20341;-37
2022/10/04 05:58:48;;;;;;;3.53;0.90;;;17.50;99.90;;;;;;4587564;19;20333;-37
2022/10/04 06:00:19;;;;;;;3.42;1.42;;;17.50;99.90;;;;;;4585653;19;20025;-36
2022/10/04 06:02:09;;;;;;;4.47;1.40;;;17.60;99.90;;;;;;4588406;19;20048;-37
2022/10/04 06:03:55;;;;;;;3.70;1.52;;;17.60;99.90;;;;;;4586472;19;20078;-38
2022/10/04 06:05:48;;;;;;;3.35;1.52;;;17.70;99.90;;;;;;4585974;19;20094;-36
2022/10/04 06:07:34;;;;;;;5.22;1.85;;;17.80;99.90;;;;;;4588390;19;20032;-35
2022/10/04 06:09:36;;;;;;;4.47;1.23;;;17.80;99.90;;;;;;4586928;19;20015;-33
2022/10/04 06:11:29;;;;;;;4.33;1.30;;;17.90;99.90;;;;;;4588936;19;20031;-35
2022/10/04 06:13:40;;;;;;;3.83;1.10;;;18.00;99.90;;;;;;4589171;19;20456;-37
2022/10/04 06:15:16;;;;;;;3.10;1.33;;;18.00;99.90;;;;;;4588224;19;20010;-39
2022/10/04 06:16:56;;;;;;;2.55;0.93;;;18.00;99.90;;;;;;4589151;19;20010;-36
2022/10/04 06:18:46;;;;;;;2.47;1.20;;;18.00;99.90;;;;;;4587945;19;20019;-33
2022/10/04 06:20:26;;;;;;;6.10;1.50;;;18.00;99.90;;;;;;4587426;19;20010;-35
2022/10/04 06:22:17;;;;;;;4.93;1.50;;;18.20;99.90;;;;;;4589540;19;20062;-36
2022/10/04 06:23:58;;;;;;;3.10;1.42;;;18.30;99.90;;;;;;4592684;19;20384;-34
2022/10/04 06:25:34;;;;;;;3.55;1.25;;;18.20;99.90;;;;;;4594641;19;20019;-41
2022/10/04 06:27:13;;;;;;;4.07;1.65;;;18.10;99.90;;;;;;4592789;19;20083;-39
2022/10/04 06:28:50;;;;;;;4.88;1.30;;;18.10;99.90;;;;;;4593902;19;20017;-38
2022/10/04 06:30:21;;;;;;;3.03;1.27;;;18.00;99.90;;;;;;4591106;19;20010;-37
2022/10/04 06:32:29;;;;;;;3.03;1.35;;;18.00;99.90;;;;;;4589740;19;20015;-34
2022/10/04 06:34:16;;;;;;;4.43;1.52;;;18.00;99.90;;;;;;4589830;19;20724;-34
2022/10/04 06:36:24;;;;;;;4.07;1.63;;;18.10;99.90;;;;;;4590461;19;20015;-36
2022/10/04 06:38:01;;;;;;;3.72;1.30;;;18.10;99.90;;;;;;4591125;19;20096;-36
2022/10/04 06:39:58;;;;;;;3.97;1.23;;;18.20;99.90;;;;;;4591234;19;20345;-34
2022/10/04 06:41:40;;;;;;;4.95;1.45;;;18.20;99.90;;;;;;4591768;19;20422;-40
2022/10/04 06:43:42;;;;;;;4.03;1.52;;;18.20;99.90;;;;;;4591843;19;20010;-35
2022/10/04 06:45:34;;;;;;;4.00;1.50;;;18.20;99.90;;;;;;4593244;19;20011;-36
2022/10/04 06:47:08;;;;;;;;;;;18.20;99.90;;;;;;4594755;19;20002;-40
2022/10/04 06:48:53;;;;;;;4.10;1.30;;;18.20;99.90;;;;;;4593659;19;19925;-34
2022/10/04 06:50:47;;;;;;;3.80;1.48;;;18.20;99.90;;;;;;4592239;19;20064;-35
2022/10/04 06:52:23;;;;;;;4.85;1.83;;;18.20;99.90;;;;;;4590903;19;20014;-35
2022/10/04 06:54:33;;;;;;;3.63;1.40;;;18.20;99.90;;;;;;4591199;19;20018;-34
2022/10/04 06:56:21;;;;;;;5.43;1.73;;;18.20;99.90;;;;;;4591089;19;20010;-34
2022/10/04 06:58:16;;;;;;;5.50;1.90;;;18.30;99.90;;;;;;4591110;19;20014;-36
2022/10/04 07:00:05;;;;;;;2.85;1.20;;;18.30;99.90;;;;;;4590692;19;20015;-33
2022/10/04 07:01:37;;;;;;;2.17;1.13;;;18.30;99.90;;;;;;4591212;19;20023;-33
2022/10/04 07:03:15;;;;;;;3.17;1.10;;;18.20;99.90;;;;;;4590579;19;20018;-34
2022/10/04 07:05:08;;;;;;;5.90;1.98;;;18.30;99.90;;;;;;4590593;19;20080;-43
2022/10/04 07:09:01;;;;;;;3.05;1.20;;;18.30;99.90;;;;;;4590639;19;20081;-36
2022/10/04 07:10:40;;;;;;;4.72;2.05;;;18.00;99.90;;;;;;4590265;19;20018;-32
2022/10/04 07:12:15;;;;;;;2.92;1.20;;;16.20;99.90;;;;;;4590701;19;20045;-36
2022/10/04 07:13:51;;;;;;;3.50;1.67;;;15.40;99.90;;;;;;4591039;19;20019;-32
2022/10/04 07:15:24;;;;;;;3.42;1.55;;;15.20;99.90;;;;;;4590347;19;20014;-37
2022/10/04 07:16:58;;;;;;;3.93;1.53;;;15.00;99.90;;;;;;4590560;19;20062;-32
2022/10/04 07:18:52;;;;;;;3.30;2.03;;;15.00;99.90;;;;;;4589887;19;20014;-37
2022/10/04 07:20:29;;;;;;;3.60;1.50;;;15.00;99.90;;;;;;4589398;19;20014;-36
2022/10/04 07:22:06;;;;;;;2.20;1.50;;;14.90;99.90;;;;;;4590049;19;20459;-34
2022/10/04 07:23:48;;;;;;;3.53;1.57;;;14.90;99.90;;;;;;4589841;19;20028;-33
2022/10/04 07:25:27;;;;;;;4.85;2.20;;;14.90;99.90;;;;;;4589834;19;20019;-36
2022/10/04 07:26:58;;;;;;;2.63;1.40;;;15.00;99.90;;;;;;4590387;19;20039;-36
2022/10/04 07:30:21;;;;;;;3.40;1.52;;;15.00;99.90;;;;;;4589976;19;20102;-32
2022/10/04 07:32:05;;;;;;;4.20;1.88;;;14.90;99.90;;;;;;4590090;19;20014;-32
2022/10/04 07:33:58;;;;;;;3.97;1.60;;;14.90;99.90;;;;;;4589158;19;20021;-35
2022/10/04 07:35:34;;;;;;;4.38;2.28;;;14.90;99.90;;;;;;4590130;19;20090;-35
2022/10/04 07:37:11;;;;;;;3.70;1.70;;;14.90;99.90;;;;;;4589967;19;20355;-38
2022/10/04 07:38:48;;;;;;;3.30;1.80;;;14.90;99.90;;;;;;4590248;19;20039;-33
2022/10/04 07:40:36;;;;;;;5.73;2.23;;;15.00;99.90;;;;;;4588761;19;20035;-33
2022/10/04 07:42:15;;;;;;;4.23;2.07;;;14.90;99.90;;;;;;4589938;19;20356;-33
2022/10/04 07:43:56;;;;;;;3.10;1.50;;;14.90;99.90;;;;;;4589736;19;20018;-33
2022/10/04 07:45:32;;;;;;;4.13;2.27;;;14.90;99.90;;;;;;4590071;19;20003;-32
2022/10/04 07:47:13;;;;;;;4.47;1.70;;;15.00;99.90;;;;;;4590131;19;20014;-32
2022/10/04 07:48:47;;;;;;;5.32;2.28;;;14.90;99.90;;;;;;4589803;19;20039;-32
2022/10/04 07:50:48;;;;;;;4.55;1.73;;;14.90;99.90;;;;;;4589285;19;20006;-34
2022/10/04 07:52:19;;;;;;;3.20;1.57;;;14.90;99.90;;;;;;4589607;19;20014;-32
2022/10/04 07:54:09;;;;;;;3.17;1.40;;;15.00;99.90;;;;;;4589466;19;20520;-33
2022/10/04 07:55:51;;;;;;;2.17;1.20;;;15.00;99.90;;;;;;4589822;19;20031;-33
2022/10/04 07:57:43;;;;;;;;;;;14.90;99.90;;;;;;4590220;19;20010;-32
2022/10/04 07:59:47;;;;;;;3.37;1.70;;;15.00;99.90;;;;;;4589444;19;19926;-32
2022/10/04 08:01:24;;;;;;;4.43;1.50;;;15.00;99.90;;;;;;4589369;19;20048;-33
2022/10/04 08:02:58;;;;;;;2.45;1.30;;;15.00;99.90;;;;;;4588957;19;20027;-33
2022/10/04 08:04:55;;;;;;;2.70;1.40;;;15.00;99.90;;;;;;4589161;19;20020;-34
2022/10/04 08:06:55;;;;;;;3.70;1.55;;;15.00;99.90;;;;;;4589435;19;20515;-35
2022/10/04 08:08:44;;;;;;;3.10;1.45;;;15.00;99.90;;;;;;4589593;19;20112;-39
2022/10/04 08:10:30;;;;;;;5.63;1.60;;;15.20;99.90;;;;;;4589024;19;20022;-32
2022/10/04 08:12:22;;;;;;;3.88;1.40;;;15.60;99.90;;;;;;4589233;19;20027;-33
2022/10/04 08:14:24;;;;;;;6.15;1.42;;;15.90;99.90;;;;;;4589110;19;20010;-34
2022/10/04 08:16:00;;;;;;;4.30;2.00;;;16.20;99.90;;;;;;4589336;19;20124;-35
2022/10/04 08:17:57;;;;;;;4.15;1.60;;;16.30;99.90;;;;;;4588726;19;20014;-36
2022/10/04 08:19:38;;;;;;;4.60;1.42;;;16.50;99.90;;;;;;4588980;19;20018;-33
2022/10/04 08:21:16;;;;;;;8.57;2.30;;;16.60;99.90;;;;;;4589740;19;20003;-34
2022/10/04 08:23:19;;;;;;;6.20;1.90;;;16.70;99.90;;;;;;4588314;19;20048;-34
2022/10/04 08:24:59;;;;;;;;;;;16.80;99.90;;;;;;4589979;19;20006;-34
2022/10/04 08:26:58;;;;;;;2.92;1.30;;;16.70;99.90;;;;;;4588867;19;20249;-33
2022/10/04 08:30:49;;;;;;;3.47;1.70;;;16.80;99.90;;;;;;4588874;19;20074;-34
2022/10/04 08:32:51;;;;;;;2.58;1.08;;;16.90;99.90;;;;;;4588328;19;20053;-35
2022/10/04 08:34:53;;;;;;;4.18;1.17;;;16.90;99.90;;;;;;4589912;19;20074;-32
2022/10/04 08:36:40;;;;;;;4.38;1.58;;;17.00;99.90;;;;;;4589937;19;20006;-38
2022/10/04 08:38:23;;;;;;;6.47;2.88;;;17.10;99.90;;;;;;4589114;19;20022;-33
2022/10/04 08:40:18;;;;;;;4.78;1.20;;;17.10;99.90;;;;;;4589480;19;20023;-37
2022/10/04 08:42:00;;;;;;;3.28;1.42;;;17.00;99.90;;;;;;4587481;19;20461;-32
2022/10/04 08:43:41;;;;;;;3.45;1.60;;;17.10;99.90;;;;;;4588063;19;20006;-38
2022/10/04 08:45:37;;;;;;;2.88;1.33;;;17.10;99.90;;;;;;4586104;19;20044;-34
2022/10/04 08:47:34;;;;;;;5.35;1.38;;;17.10;99.90;;;;;;4588218;19;20026;-37